Time;durP1;ratioP1;P1;durP2;ratioP2;P2;SDS_P1;SDS_P2;PMS_P1;PMS_P2;Temp;Humidity;BMP_temperature;BMP_pressure;BME280_temperature;BME280_humidity;BME280_pressure;Samples;Min_cycle;Max_cycle;Signal;HPM_P1;HPM_P2
2023/09/05 00:01:19;;;;;;;8.40;5.32;;;;;;;-145.68;100.00;74577.28;10450428;28;20188;-70
2023/09/05 00:06:19;;;;;;;8.70;4.82;;;;;;;-145.68;100.00;74601.28;10451340;28;20196;-71
2023/09/05 00:11:20;;;;;;;9.60;5.60;;;;;;;-145.68;100.00;74603.28;10450098;28;20218;-70
2023/09/05 00:16:20;;;;;;;8.80;5.40;;;;;;;-145.68;100.00;74613.28;10451592;28;20245;-71
2023/09/05 00:21:21;;;;;;;8.50;5.60;;;;;;;-145.68;100.00;74617.28;10451120;28;20186;-70
2023/09/05 00:26:21;;;;;;;9.50;6.13;;;;;;;-145.68;100.00;74629.28;10451343;28;20269;-70
2023/09/05 00:31:22;;;;;;;7.28;5.88;;;;;;;-145.68;100.00;74615.28;10432622;28;20242;-70
2023/09/05 00:36:23;;;;;;;15.27;5.63;;;;;;;-145.68;100.00;74593.28;10451012;28;20183;-70
2023/09/05 00:41:24;;;;;;;9.00;5.70;;;;;;;-145.68;100.00;74575.28;10450413;28;20187;-71
2023/09/05 00:46:25;;;;;;;5.65;5.03;;;;;;;-145.68;100.00;74567.28;10448735;28;20195;-71
2023/09/05 00:51:25;;;;;;;6.75;5.13;;;;;;;-145.68;100.00;74531.31;10466243;28;20359;-70
2023/09/05 00:56:26;;;;;;;7.47;5.30;;;;;;;-145.68;100.00;74523.31;10448343;28;20188;-71
2023/09/05 01:01:26;;;;;;;8.68;4.70;;;;;;;-145.68;100.00;74505.31;10450415;28;20180;-70
2023/09/05 01:07:05;;;;;;;5.97;4.40;;;;;;;-145.68;100.00;74499.31;10453638;28;20658;-70
2023/09/05 01:12:07;;;;;;;5.07;3.72;;;;;;;-145.68;100.00;74439.34;10446594;28;20228;-70
2023/09/05 01:17:07;;;;;;;8.60;2.60;;;;;;;-145.68;100.00;74279.41;10434868;28;20219;-70
2023/09/05 01:22:28;;;;;;;5.18;2.20;;;;;;;-145.68;95.80;74063.50;10457334;28;20184;-70
2023/09/05 01:27:29;;;;;;;3.53;2.47;;;;;;;-145.68;83.26;74037.50;10439392;28;20290;-70
2023/09/05 01:32:29;;;;;;;4.97;2.22;;;;;;;-145.68;79.51;74017.50;10457228;28;20295;-69
2023/09/05 01:37:30;;;;;;;2.08;1.80;;;;;;;-145.68;78.49;74021.50;10456342;28;20307;-70
2023/09/05 01:42:30;;;;;;;5.75;2.45;;;;;;;-145.68;77.71;74025.50;10430141;28;20192;-69
2023/09/05 01:47:31;;;;;;;2.97;2.03;;;;;;;-145.68;76.91;74017.50;10456578;28;20349;-70
2023/09/05 01:52:31;;;;;;;2.83;1.70;;;;;;;-145.68;76.51;74021.50;10455378;28;20686;-70
2023/09/05 01:57:32;;;;;;;4.40;2.03;;;;;;;-145.68;75.61;74003.53;10456278;28;20709;-70
2023/09/05 02:02:32;;;;;;;2.03;1.90;;;;;;;-145.68;75.41;74011.53;10449063;28;20191;-69
2023/09/05 02:07:32;;;;;;;3.25;1.80;;;;;;;-145.68;74.31;73997.53;10474404;28;20196;-70
2023/09/05 02:12:34;;;;;;;3.90;2.00;;;;;;;-145.68;73.02;73975.53;10455582;28;20207;-70
2023/09/05 02:17:36;;;;;;;3.95;1.83;;;;;;;-145.68;72.61;73975.53;10454977;28;20215;-69
2023/09/05 02:22:36;;;;;;;5.50;2.13;;;;;;;-145.68;71.91;73973.53;10454028;28;20719;-70
2023/09/05 02:27:36;;;;;;;3.03;1.90;;;;;;;-145.68;72.03;73975.53;10434943;28;20265;-69
2023/09/05 02:32:37;;;;;;;2.30;1.70;;;;;;;-145.68;72.38;73995.53;10454817;28;20215;-70
2023/09/05 02:37:37;;;;;;;2.42;1.92;;;;;;;-145.68;72.37;73999.53;10435749;28;20211;-70
2023/09/05 02:42:37;;;;;;;1.95;1.60;;;;;;;-145.68;72.86;73995.53;10453950;28;20191;-70
2023/09/05 02:47:38;;;;;;;2.17;1.85;;;;;;;-145.68;73.30;74023.50;10452078;28;20218;-70
2023/09/05 02:52:39;;;;;;;3.60;2.22;;;;;;;-145.68;74.58;74035.50;10432500;28;20285;-70
2023/09/05 02:57:39;;;;;;;2.60;2.00;;;;;;;-145.68;74.84;74047.50;10454654;23;20301;-67
2023/09/05 03:02:40;;;;;;;3.00;2.10;;;;;;;-145.68;75.17;74039.50;10414835;28;20188;-66
2023/09/05 03:07:40;;;;;;;2.30;1.90;;;;;;;-145.68;74.08;74029.50;10412345;28;20209;-66
2023/09/05 03:12:41;;;;;;;2.33;2.08;;;;;;;-145.68;73.58;74015.50;10407410;28;20217;-66
2023/09/05 03:17:42;;;;;;;2.97;1.90;;;;;;;-145.68;73.60;74031.50;10421484;28;20311;-66
2023/09/05 03:22:43;;;;;;;4.20;1.80;;;;;;;-145.68;73.31;74025.50;10411049;28;20189;-66
2023/09/05 03:27:44;;;;;;;2.20;1.98;;;;;;;-145.68;73.31;74019.50;10411875;28;20223;-66
2023/09/05 03:32:44;;;;;;;4.28;2.00;;;;;;;-145.68;73.95;74033.50;10419454;28;20215;-67
2023/09/05 03:37:44;;;;;;;2.70;1.85;;;;;;;-145.68;74.09;74035.50;10423737;28;20231;-66
2023/09/05 03:42:48;;;;;;;2.80;2.10;;;;;;;-145.68;74.53;74045.50;10409200;28;20199;-67
2023/09/05 03:47:48;;;;;;;4.22;2.00;;;;;;;-145.68;74.66;74033.50;10410276;28;20220;-66
2023/09/05 03:52:48;;;;;;;3.65;1.92;;;;;;;-145.68;74.53;74031.50;10413796;28;20286;-66
2023/09/05 03:57:49;;;;;;;4.93;1.90;;;;;;;-145.68;74.28;74035.50;10425602;28;20254;-66
2023/09/05 04:02:49;;;;;;;8.38;1.83;;;;;;;-145.68;74.51;74027.50;10437155;28;20214;-66
2023/09/05 04:07:49;;;;;;;4.35;1.80;;;;;;;-145.68;74.48;74027.50;10410571;28;20209;-66
2023/09/05 04:12:50;;;;;;;3.00;1.92;;;;;;;-145.68;74.24;74035.50;10413038;28;20216;-66
2023/09/05 04:17:51;;;;;;;3.80;1.92;;;;;;;-145.68;74.27;74029.50;10422746;28;20208;-66
2023/09/05 04:22:51;;;;;;;2.35;1.60;;;;;;;-145.68;73.23;74009.53;10444620;28;20193;-66
2023/09/05 04:27:52;;;;;;;2.92;2.15;;;;;;;-145.68;72.69;74015.50;10425768;28;20765;-66
2023/09/05 04:32:53;;;;;;;2.50;2.30;;;;;;;-145.68;73.06;74021.50;10426128;28;20882;-65
2023/09/05 04:37:54;;;;;;;4.95;1.75;;;;;;;-145.68;73.39;74007.53;10423275;28;20303;-66
2023/09/05 04:42:54;;;;;;;2.15;1.90;;;;;;;-145.68;74.07;74021.50;10448494;28;20183;-66
2023/09/05 04:47:55;;;;;;;2.35;1.92;;;;;;;-145.68;73.92;74011.53;10431563;28;20210;-68
2023/09/05 04:52:56;;;;;;;2.83;2.10;;;;;;;-145.68;73.82;74015.50;10451723;28;20701;-66
2023/09/05 04:57:57;;;;;;;3.33;2.17;;;;;;;-145.68;73.70;74013.53;10431617;28;20244;-66
2023/09/05 05:02:58;;;;;;;6.40;1.83;;;;;;;-145.68;72.17;73975.53;10421271;28;20651;-66
2023/09/05 05:07:58;;;;;;;5.95;2.30;;;;;;;-145.68;71.76;73981.53;10450268;28;20208;-66
2023/09/05 05:12:58;;;;;;;4.97;2.42;;;;;;;-145.68;71.69;73975.53;10424159;28;20240;-66
2023/09/05 05:17:59;;;;;;;6.93;2.03;;;;;;;-145.68;71.12;73963.53;10416585;28;20298;-67
2023/09/05 05:22:59;;;;;;;3.25;2.05;;;;;;;-145.68;71.13;73957.53;10432421;28;20184;-66
2023/09/05 05:27:59;;;;;;;3.67;1.98;;;;;;;-145.68;70.84;73937.56;10454667;28;20705;-66
2023/09/05 05:33:00;;;;;;;3.13;2.10;;;;;;;-145.68;68.74;73887.56;10441515;28;20228;-66
2023/09/05 05:38:00;;;;;;;3.40;1.70;;;;;;;-145.68;66.56;73829.59;10416058;28;20208;-65
2023/09/05 05:43:01;;;;;;;3.03;1.92;;;;;;;-145.68;65.27;73797.63;10453190;28;20188;-67
2023/09/05 05:48:01;;;;;;;4.35;1.70;;;;;;;-145.68;63.70;73737.66;10453893;28;20234;-67
2023/09/05 05:53:02;;;;;;;1.45;1.33;;;;;;;-145.68;62.60;73695.69;10420510;28;20223;-66
2023/09/05 05:58:02;;;;;;;3.38;1.60;;;;;;;-145.68;62.11;73719.66;10423025;28;20315;-67
2023/09/05 06:03:03;;;;;;;1.35;1.25;;;;;;;-145.68;60.27;73667.69;10424672;28;20633;-67
2023/09/05 06:08:03;;;;;;;2.58;1.40;;;;;;;-145.68;59.28;73677.69;10419525;28;20705;-67
2023/09/05 06:13:04;;;;;;;5.05;1.90;;;;;;;-145.68;58.47;73643.72;10439679;28;20741;-66
2023/09/05 06:18:05;;;;;;;3.83;1.40;;;;;;;-145.68;57.01;73593.75;10424472;28;20243;-67
2023/09/05 06:23:06;;;;;;;2.50;1.60;;;;;;;-145.68;56.86;73603.72;10430076;28;20215;-67
2023/09/05 06:28:06;;;;;;;2.22;1.58;;;;;;;-145.68;56.09;73553.75;10452375;28;20414;-67
2023/09/05 06:33:07;;;;;;;4.03;1.80;;;;;;;-145.68;54.46;73547.75;10444273;28;20243;-66
2023/09/05 06:38:08;;;;;;;4.28;1.70;;;;;;;-145.68;54.43;73545.78;10448750;28;20639;-67
2023/09/05 06:43:09;;;;;;;2.47;1.65;;;;;;;-145.68;53.84;73497.78;10444180;28;20543;-66
2023/09/05 06:48:10;;;;;;;5.38;2.17;;;;;;;-145.68;54.77;73585.75;10451444;28;20626;-67
2023/09/05 06:53:10;;;;;;;3.33;1.83;;;;;;;-145.68;54.13;73519.78;10450204;28;20208;-67
2023/09/05 06:58:10;;;;;;;3.95;1.83;;;;;;;-145.68;52.21;73475.81;10449449;28;20231;-66
2023/09/05 07:03:12;;;;;;;3.22;1.85;;;;;;;-145.68;52.25;73473.81;10430498;28;20196;-66
2023/09/05 07:08:13;;;;;;;2.83;1.70;;;;;;;-145.68;49.43;73273.94;10439357;28;20220;-65
2023/09/05 07:13:13;;;;;;;3.13;1.73;;;;;;;-145.68;48.78;73379.88;10424170;28;20694;-66
2023/09/05 07:18:14;;;;;;;1.60;1.50;;;;;;;-145.68;49.08;73367.88;10417390;28;20578;-66
2023/09/05 07:23:14;;;;;;;2.08;1.52;;;;;;;-145.68;49.68;73435.84;10424694;28;20235;-65
2023/09/05 07:28:14;;;;;;;3.72;1.70;;;;;;;-145.68;49.96;73395.84;10420712;28;20709;-65
2023/09/05 07:33:15;;;;;;;4.00;1.35;;;;;;;-145.68;49.10;73371.88;10410031;28;20646;-65
2023/09/05 07:38:17;;;;;;;3.97;1.70;;;;;;;-145.68;49.42;73417.84;10445589;28;20248;-66
2023/09/05 07:43:17;;;;;;;1.70;1.50;;;;;;;-145.68;49.33;73379.88;10448088;28;20247;-66
2023/09/05 07:48:18;;;;;;;2.15;1.52;;;;;;;-145.68;49.00;73379.88;10430580;28;20286;-66
2023/09/05 07:53:18;;;;;;;2.00;1.55;;;;;;;-145.68;49.96;73451.81;10431944;28;20204;-66
2023/09/05 07:58:19;;;;;;;1.63;1.50;;;;;;;-145.68;49.38;73425.84;10430458;28;20585;-66
2023/09/05 08:03:20;;;;;;;1.92;1.10;;;;;;;-145.68;49.64;73431.84;10446948;28;20207;-66
2023/09/05 08:08:20;;;;;;;2.90;1.80;;;;;;;-145.68;49.98;73457.81;10435012;28;20215;-64
2023/09/05 08:13:21;;;;;;;2.15;1.50;;;;;;;-145.68;50.42;73451.81;10419884;28;20216;-66
2023/09/05 08:18:21;;;;;;;2.53;1.65;;;;;;;-145.68;50.11;73423.84;10422663;28;20335;-66
2023/09/05 08:23:22;;;;;;;2.63;1.80;;;;;;;-145.68;50.08;73459.81;10430042;28;20655;-67
2023/09/05 08:28:26;;;;;;;3.45;1.77;;;;;;;-145.68;49.85;73461.81;10441257;28;20210;-66
2023/09/05 08:33:27;;;;;;;1.85;1.60;;;;;;;-145.68;50.47;73497.78;10425605;28;20212;-66
2023/09/05 08:38:28;;;;;;;2.10;1.80;;;;;;;-145.68;50.40;73483.81;10454792;28;20207;-65
2023/09/05 08:43:28;;;;;;;2.13;1.67;;;;;;;-145.68;50.53;73499.78;10433323;28;20184;-66
2023/09/05 08:48:30;;;;;;;5.00;1.63;;;;;;;-145.68;49.32;73389.88;10416430;28;20216;-67
2023/09/05 08:53:35;;;;;;;6.10;2.08;;;;;;;-145.68;49.23;73415.84;10415725;28;20235;-66
2023/09/05 08:58:36;;;;;;;2.45;1.67;;;;;;;-145.68;48.85;73443.84;10441133;22;20975;-69
2023/09/05 09:03:37;;;;;;;2.63;1.90;;;;;;;-145.68;48.42;73335.91;10418827;28;20216;-69
2023/09/05 09:08:40;;;;;;;5.07;2.30;;;;;;;-145.68;48.52;73327.91;10414262;28;20596;-69
2023/09/05 09:13:40;;;;;;;1.77;1.40;;;;;;;-145.68;47.67;73335.91;10413378;28;20247;-70
2023/09/05 09:18:41;;;;;;;2.70;1.75;;;;;;;-145.68;46.88;73289.94;10412336;28;20211;-69
2023/09/05 09:23:42;;;;;;;3.42;1.55;;;;;;;-145.68;47.66;73347.88;10405244;28;20192;-68
2023/09/05 09:28:42;;;;;;;2.00;1.60;;;;;;;-145.68;46.96;73267.94;10414044;28;20754;-68
2023/09/05 09:33:42;;;;;;;2.47;1.70;;;;;;;-145.68;46.20;73194.00;10412084;28;20205;-69
2023/09/05 09:38:43;;;;;;;3.28;1.92;;;;;;;-145.68;44.70;73114.03;10429239;28;20211;-69
2023/09/05 09:43:44;;;;;;;2.28;1.63;;;;;;;-145.68;44.65;73203.97;10449202;28;20243;-68
2023/09/05 09:48:45;;;;;;;5.22;1.83;;;;;;;-145.68;45.54;73168.00;10413768;28;20628;-68
2023/09/05 09:53:48;;;;;;;3.15;2.08;;;;;;;-145.68;46.52;73263.94;10395614;28;20293;-69
2023/09/05 09:58:50;;;;;;;2.28;1.70;;;;;;;-145.68;44.54;73040.09;10427298;28;20247;-69
2023/09/05 10:03:50;;;;;;;5.50;2.00;;;;;;;-145.68;43.19;73024.13;10436366;28;20184;-68
2023/09/05 10:08:51;;;;;;;3.10;1.77;;;;;;;-145.68;41.62;72826.25;10435939;28;20199;-68
2023/09/05 10:13:51;;;;;;;3.25;1.90;;;;;;;-145.68;41.09;72844.25;10432645;28;20273;-69
2023/09/05 10:18:53;;;;;;;3.15;1.75;;;;;;;-145.68;40.46;72762.31;10435173;28;20215;-68
2023/09/05 10:23:53;;;;;;;7.38;2.05;;;;;;;-145.68;41.59;72844.25;10450345;28;20689;-68
2023/09/05 10:28:56;;;;;;;4.60;2.35;;;;;;;-145.68;41.24;72842.25;10452776;28;20203;-68
2023/09/05 10:33:58;;;;;;;9.02;2.28;;;;;;;-145.68;40.63;72776.28;10475897;28;20357;-68
2023/09/05 10:38:58;;;;;;;2.65;2.00;;;;;;;-145.68;42.52;72988.13;10431950;28;20212;-67
2023/09/05 10:44:00;;;;;;;5.32;2.10;;;;;;;-145.68;44.47;72990.13;10491749;28;20551;-68
2023/09/05 10:49:12;;;;;;;2.70;2.17;;;;;;;-145.68;41.75;72748.31;10462031;28;20215;-69
2023/09/05 10:54:27;;;;;;;5.07;2.05;;;;;;;-145.68;42.24;72868.22;10460458;28;20251;-69
2023/09/05 10:59:29;;;;;;;4.53;2.20;;;;;;;-145.68;42.12;72918.19;10468253;28;20281;-69
2023/09/05 11:04:31;;;;;;;3.00;2.20;;;;;;;-145.68;43.77;72924.19;10448756;28;20192;-68
2023/09/05 11:09:49;;;;;;;4.88;2.28;;;;;;;-145.68;40.88;72656.41;10481720;28;20682;-69
2023/09/05 11:14:52;;;;;;;2.47;2.10;;;;;;;-145.68;41.82;72858.22;10460823;28;20204;-69
2023/09/05 11:19:53;;;;;;;2.55;2.10;;;;;;;-145.68;40.71;72688.38;10443608;28;20781;-69
2023/09/05 11:24:58;;;;;;;3.35;1.85;;;;;;;-145.68;41.69;72860.22;10443935;28;20188;-69
2023/09/05 11:30:00;;;;;;;3.50;2.20;;;;;;;-145.68;43.31;72950.16;10434745;28;20234;-68
2023/09/05 11:35:03;;;;;;;3.45;2.00;;;;;;;-145.68;42.45;72836.25;10475553;28;20272;-68
2023/09/05 11:40:12;;;;;;;5.72;2.30;;;;;;;-145.68;42.71;72936.19;10465074;28;20226;-69
2023/09/05 11:45:17;;;;;;;3.30;2.03;;;;;;;-145.68;40.62;72814.28;10443683;28;20215;-69
2023/09/05 11:50:18;;;;;;;4.45;2.10;;;;;;;-145.68;40.33;72756.31;10445221;28;20791;-68
2023/09/05 11:55:21;;;;;;;3.75;2.05;;;;;;;-145.68;40.22;72684.38;10476536;28;20210;-69
2023/09/05 12:00:23;;;;;;;4.97;2.22;;;;;;;-145.68;41.21;72846.25;10467792;28;20294;-69
2023/09/05 12:05:24;;;;;;;2.10;1.90;;;;;;;-145.68;39.86;72696.34;10442626;28;20258;-68
2023/09/05 12:10:27;;;;;;;3.58;2.40;;;;;;;-145.68;40.58;72716.34;10453703;28;20218;-68
2023/09/05 12:15:28;;;;;;;2.67;1.95;;;;;;;-145.68;39.98;72772.31;10445478;28;20579;-69
2023/09/05 12:20:29;;;;;;;4.13;2.20;;;;;;;-145.68;40.17;72868.22;10413252;28;20208;-68
2023/09/05 12:25:29;;;;;;;3.53;2.03;;;;;;;-145.68;40.27;72806.28;10413662;28;20204;-68
2023/09/05 12:30:33;;;;;;;3.58;2.30;;;;;;;-145.68;39.54;72792.28;10414799;28;20209;-68
2023/09/05 12:35:33;;;;;;;4.10;2.05;;;;;;;-145.68;39.48;72770.31;10414186;28;20185;-68
2023/09/05 12:40:33;;;;;;;3.78;2.40;;;;;;;-145.68;39.69;72772.31;10414791;28;20205;-69
2023/09/05 12:45:34;;;;;;;4.47;2.38;;;;;;;-145.68;38.92;72698.34;10413290;28;20228;-68
2023/09/05 12:50:36;;;;;;;4.15;1.90;;;;;;;-145.68;38.50;72662.38;10441527;28;20208;-69
2023/09/05 12:55:37;;;;;;;4.10;2.17;;;;;;;-145.68;38.68;72702.34;10452182;28;20192;-69
2023/09/05 13:00:39;;;;;;;4.05;2.17;;;;;;;-145.68;37.00;72556.47;10448215;28;20586;-69
2023/09/05 13:05:40;;;;;;;3.55;2.17;;;;;;;-145.68;37.42;72536.50;10451882;28;20227;-68
2023/09/05 13:10:40;;;;;;;4.50;2.20;;;;;;;-145.68;38.19;72582.44;10451292;28;20246;-69
2023/09/05 13:15:43;;;;;;;4.95;2.42;;;;;;;-145.68;37.30;72510.50;10451778;28;20187;-68
2023/09/05 13:20:43;;;;;;;3.35;2.42;;;;;;;-145.68;39.07;72686.38;10450672;28;20311;-69
2023/09/05 13:25:46;;;;;;;4.97;2.42;;;;;;;-145.68;37.74;72576.47;10425818;28;20212;-69
2023/09/05 13:30:46;;;;;;;5.25;2.55;;;;;;;-145.68;38.25;72594.44;10439855;28;20456;-69
2023/09/05 13:35:46;;;;;;;2.67;2.10;;;;;;;-145.68;36.44;72474.53;10434513;28;20197;-70
2023/09/05 13:40:47;;;;;;;2.67;2.13;;;;;;;-145.68;38.44;72544.50;10412259;28;20247;-70
2023/09/05 13:45:47;;;;;;;3.63;2.20;;;;;;;-145.68;34.77;72222.78;10425737;28;20220;-70
2023/09/05 13:50:47;;;;;;;7.40;2.50;;;;;;;-145.68;37.80;72566.47;10409364;28;20208;-70
2023/09/05 13:55:48;;;;;;;8.05;2.10;;;;;;;-145.68;37.36;72476.53;10411494;28;20191;-70
2023/09/05 14:00:48;;;;;;;5.10;2.55;;;;;;;-145.68;37.18;72484.53;10408435;28;20218;-70
2023/09/05 14:05:50;;;;;;;2.63;2.35;;;;;;;-145.68;36.03;72316.69;10432391;28;20246;-69
2023/09/05 14:10:51;;;;;;;4.18;2.22;;;;;;;-145.68;38.01;72602.44;10436524;28;20208;-69
2023/09/05 14:15:51;;;;;;;3.28;1.90;;;;;;;-145.68;36.29;72486.53;10408728;28;20601;-70
2023/09/05 14:20:52;;;;;;;4.10;2.60;;;;;;;-145.68;36.82;72428.59;10408831;28;20216;-70
2023/09/05 14:25:52;;;;;;;3.10;2.40;;;;;;;-145.68;35.19;72298.69;10438972;28;20224;-71
2023/09/05 14:30:52;;;;;;;3.50;2.70;;;;;;;-145.68;34.47;72148.84;10430393;28;20471;-70
2023/09/05 14:35:53;;;;;;;2.40;2.20;;;;;;;-145.68;34.45;72170.81;10401813;28;20271;-72
2023/09/05 14:40:53;;;;;;;5.43;3.05;;;;;;;-145.68;34.18;72124.88;10401422;28;20492;-71
2023/09/05 14:45:54;;;;;;;5.53;2.55;;;;;;;-145.68;35.22;72212.78;10406510;28;20228;-70
2023/09/05 14:50:54;;;;;;;6.00;3.00;;;;;;;-145.68;35.63;72266.72;10409728;28;20215;-71
2023/09/05 14:55:54;;;;;;;4.57;2.72;;;;;;;-145.68;35.57;72330.66;10409326;28;20188;-70
2023/09/05 15:00:55;;;;;;;4.50;2.75;;;;;;;-145.68;35.22;72324.69;10436465;22;20736;-65
2023/09/05 15:05:55;;;;;;;3.35;2.60;;;;;;;-145.68;35.55;72246.75;10426989;28;20227;-65
2023/09/05 15:10:56;;;;;;;5.05;2.72;;;;;;;-145.68;34.73;72098.88;10399285;28;20722;-65
2023/09/05 15:15:56;;;;;;;4.10;2.90;;;;;;;-145.68;35.01;72196.78;10390749;28;20619;-65
2023/09/05 15:20:56;;;;;;;4.25;3.20;;;;;;;-145.68;36.95;72360.66;10395148;28;20477;-64
2023/09/05 15:25:57;;;;;;;5.25;3.15;;;;;;;-145.68;37.36;72332.66;10406317;28;20212;-65
2023/09/05 15:30:57;;;;;;;5.45;3.22;;;;;;;-145.68;37.33;72444.56;10367425;28;20213;-65
2023/09/05 15:35:59;;;;;;;6.18;3.22;;;;;;;-145.68;37.63;72448.56;10365449;28;20565;-65
2023/09/05 15:40:59;;;;;;;6.32;3.60;;;;;;;-145.68;38.17;72456.56;10366388;28;20267;-65
2023/09/05 15:45:59;;;;;;;4.15;2.80;;;;;;;-145.68;37.99;72450.56;10367016;28;20576;-65
2023/09/05 15:51:00;;;;;;;5.45;3.08;;;;;;;-145.68;38.44;72538.50;10367104;28;20221;-65
2023/09/05 15:56:00;;;;;;;7.13;3.17;;;;;;;-145.68;38.68;72508.50;10387265;28;20192;-65
2023/09/05 16:01:01;;;;;;;6.82;3.67;;;;;;;-145.68;38.71;72536.50;10411970;28;20614;-66
2023/09/05 16:06:01;;;;;;;5.05;3.70;;;;;;;-145.68;39.06;72564.47;10412313;28;20283;-66
2023/09/05 16:11:12;;;;;;;6.93;3.78;;;;;;;-145.68;39.11;72532.50;10384247;28;20216;-65
2023/09/05 16:16:15;;;;;;;4.35;3.30;;;;;;;-145.68;38.70;72552.47;10399791;28;20627;-66
2023/09/05 16:21:15;;;;;;;13.23;4.30;;;;;;;-145.68;39.40;72632.41;10413427;28;20306;-66
2023/09/05 16:26:16;;;;;;;9.60;3.55;;;;;;;-145.68;39.64;72578.47;10413922;28;20220;-66
2023/09/05 16:31:16;;;;;;;7.30;3.63;;;;;;;-145.68;39.62;72656.41;10413339;28;20220;-66
2023/09/05 16:36:21;;;;;;;7.90;3.45;;;;;;;-145.68;40.80;72702.34;10413291;28;20196;-66
2023/09/05 16:41:22;;;;;;;7.50;3.55;;;;;;;-145.68;45.48;73034.09;10413158;28;20644;-66
2023/09/05 16:46:24;;;;;;;7.55;3.45;;;;;;;-145.68;45.09;72984.13;10412615;28;20303;-66
2023/09/05 16:51:25;;;;;;;8.85;3.80;;;;;;;-145.68;45.73;73032.09;10412940;28;20224;-66
2023/09/05 16:56:25;;;;;;;8.30;4.70;;;;;;;-145.68;47.95;73156.00;10412625;28;20558;-66
2023/09/05 17:01:29;;;;;;;5.85;3.95;;;;;;;-145.68;49.52;73209.97;10412218;28;20265;-67
2023/09/05 17:06:30;;;;;;;9.10;3.97;;;;;;;-145.68;51.16;73249.94;10411902;28;20239;-66
2023/09/05 17:11:33;;;;;;;7.93;3.80;;;;;;;-145.68;52.50;73299.91;10410607;28;20241;-66
2023/09/05 17:16:33;;;;;;;8.48;3.92;;;;;;;-145.68;53.81;73321.91;10411905;28;20239;-66
2023/09/05 17:21:34;;;;;;;5.82;3.72;;;;;;;-145.68;54.28;73345.88;10411206;28;20270;-67
2023/09/05 17:26:36;;;;;;;5.97;4.05;;;;;;;-145.68;55.39;73339.91;10411322;28;20220;-67
2023/09/05 17:31:37;;;;;;;5.05;4.05;;;;;;;-145.68;56.42;73361.88;10411064;28;20220;-66
2023/09/05 17:36:38;;;;;;;4.72;3.88;;;;;;;-145.68;56.86;73397.84;10410752;28;20177;-66
2023/09/05 17:41:38;;;;;;;6.93;4.78;;;;;;;-145.68;61.46;73539.78;10410806;28;20258;-66
2023/09/05 17:46:38;;;;;;;6.95;4.28;;;;;;;-145.68;64.25;73607.72;10410278;28;20224;-66
2023/09/05 17:51:39;;;;;;;7.40;4.43;;;;;;;-145.68;65.54;73605.72;10410378;28;20208;-66
2023/09/05 17:56:39;;;;;;;7.75;4.97;;;;;;;-145.68;68.40;73643.72;10409935;28;20671;-66
2023/09/05 18:01:39;;;;;;;9.38;4.35;;;;;;;-145.68;69.83;73647.72;10409664;28;20665;-66
2023/09/05 18:06:40;;;;;;;8.43;4.85;;;;;;;-145.68;70.19;73639.72;10409680;28;20211;-66
2023/09/05 18:11:40;;;;;;;10.00;5.22;;;;;;;-145.68;72.05;73651.72;10380367;28;20221;-66
2023/09/05 18:16:41;;;;;;;10.25;5.63;;;;;;;-145.68;74.31;73745.66;10370196;28;20181;-66
2023/09/05 18:21:43;;;;;;;11.80;6.10;;;;;;;-145.68;78.30;73785.63;10370328;28;20580;-66
2023/09/05 18:26:44;;;;;;;8.32;6.65;;;;;;;-145.68;83.54;73811.63;10386334;28;20236;-66
2023/09/05 18:31:44;;;;;;;10.80;6.20;;;;;;;-145.68;83.55;73791.63;10387792;28;20304;-66
2023/09/05 18:36:44;;;;;;;10.52;7.15;;;;;;;-145.68;83.78;73801.63;10380504;28;20193;-66
2023/09/05 18:41:45;;;;;;;10.75;6.75;;;;;;;-145.68;85.20;73835.59;10388734;28;20228;-66
2023/09/05 18:46:45;;;;;;;10.80;7.50;;;;;;;-145.68;87.34;73841.59;10383380;28;20227;-66
2023/09/05 18:51:46;;;;;;;11.10;6.80;;;;;;;-145.68;87.24;73847.59;10407923;28;20909;-66
2023/09/05 18:56:46;;;;;;;10.07;5.97;;;;;;;-145.68;86.84;73833.59;10407851;28;20259;-66
2023/09/05 19:01:47;;;;;;;7.55;5.60;;;;;;;-145.68;86.06;73843.59;10409782;28;20240;-66
2023/09/05 19:06:48;;;;;;;9.43;5.70;;;;;;;-145.68;85.36;73833.59;10407984;28;20273;-66
2023/09/05 19:11:49;;;;;;;8.93;6.15;;;;;;;-145.68;83.84;73821.63;10407301;28;20589;-66
2023/09/05 19:16:54;;;;;;;13.15;6.80;;;;;;;-145.68;82.76;73815.63;10407622;28;20172;-66
2023/09/05 19:21:55;;;;;;;9.20;5.68;;;;;;;-145.68;80.87;73803.63;10407158;28;20299;-66
2023/09/05 19:26:55;;;;;;;6.80;5.20;;;;;;;-145.68;79.91;73795.63;10407831;28;20756;-66
2023/09/05 19:31:56;;;;;;;8.02;5.85;;;;;;;-145.68;78.56;73791.63;10415311;28;20293;-66
2023/09/05 19:36:56;;;;;;;5.90;5.30;;;;;;;-145.68;78.93;73787.63;10415215;28;20192;-66
2023/09/05 19:41:56;;;;;;;10.80;5.95;;;;;;;-145.68;77.80;73781.63;10414801;28;20725;-66
2023/09/05 19:46:57;;;;;;;8.85;5.72;;;;;;;-145.68;78.47;73777.63;10414647;28;20760;-66
2023/09/05 19:51:57;;;;;;;9.07;5.57;;;;;;;-145.68;77.50;73765.66;10414595;28;20220;-66
2023/09/05 19:56:58;;;;;;;8.05;6.00;;;;;;;-145.68;76.79;73769.63;10372387;28;20200;-66
2023/09/05 20:01:58;;;;;;;8.57;5.68;;;;;;;-145.68;76.92;73767.66;10383540;28;20297;-66
2023/09/05 20:06:59;;;;;;;8.50;5.85;;;;;;;-145.68;76.64;73769.63;10413904;28;20670;-66
2023/09/05 20:12:01;;;;;;;9.35;5.93;;;;;;;-145.68;75.81;73763.66;10413817;28;20211;-66
2023/09/05 20:17:02;;;;;;;8.75;5.07;;;;;;;-145.68;75.68;73757.66;10394140;28;20188;-66
2023/09/05 20:22:02;;;;;;;6.97;5.10;;;;;;;-145.68;74.19;73747.66;10379504;28;20236;-66
2023/09/05 20:27:03;;;;;;;13.40;6.18;;;;;;;-145.68;72.84;73729.66;10413177;28;20246;-66
2023/09/05 20:32:03;;;;;;;10.52;5.45;;;;;;;-145.68;72.75;73741.66;10412968;28;20217;-66
2023/09/05 20:37:04;;;;;;;7.15;5.20;;;;;;;-145.68;72.40;73735.66;10404501;28;20192;-66
2023/09/05 20:42:04;;;;;;;7.40;4.97;;;;;;;-145.68;71.64;73731.66;10384638;28;20217;-65
2023/09/05 20:47:05;;;;;;;8.35;4.50;;;;;;;-145.68;71.74;73735.66;10374577;28;20734;-66
2023/09/05 20:52:05;;;;;;;6.70;4.90;;;;;;;-145.68;72.57;73753.66;10374543;28;20220;-65
2023/09/05 20:57:06;;;;;;;6.72;4.95;;;;;;;-145.68;72.38;73743.66;10405896;28;20667;-66
2023/09/05 21:02:06;;;;;;;7.05;4.53;;;;;;;-145.68;71.86;73739.66;10434764;22;20255;-70
2023/09/05 21:07:06;;;;;;;6.38;5.43;;;;;;;-145.68;72.08;73759.66;10412450;28;20350;-71
2023/09/05 21:12:07;;;;;;;5.78;4.55;;;;;;;-145.68;72.21;73751.66;10415023;28;20223;-70
2023/09/05 21:17:07;;;;;;;6.30;4.70;;;;;;;-145.68;70.76;73739.66;10414367;28;20594;-70
2023/09/05 21:22:08;;;;;;;5.82;4.80;;;;;;;-145.68;69.77;73719.66;10438709;28;20288;-70
2023/09/05 21:27:09;;;;;;;5.97;4.35;;;;;;;-145.68;69.57;73723.66;10451266;28;20361;-70
2023/09/05 21:32:09;;;;;;;7.63;4.93;;;;;;;-145.68;69.58;73733.66;10452268;28;20291;-70
2023/09/05 21:37:10;;;;;;;7.20;4.38;;;;;;;-145.68;69.29;73725.66;10452623;28;20929;-70
2023/09/05 21:42:10;;;;;;;7.10;4.65;;;;;;;-145.68;69.31;73733.66;10453402;28;20227;-70
2023/09/05 21:47:11;;;;;;;9.95;4.80;;;;;;;-145.68;68.84;73723.66;10452143;28;20226;-70
2023/09/05 21:52:11;;;;;;;7.07;4.72;;;;;;;-145.68;68.13;73719.66;10450628;28;20234;-70
2023/09/05 21:57:11;;;;;;;6.80;4.13;;;;;;;-145.68;68.17;73729.66;10451624;28;20814;-71
2023/09/05 22:02:12;;;;;;;4.68;4.15;;;;;;;-145.68;68.08;73727.66;10451060;28;20602;-70
2023/09/05 22:07:14;;;;;;;6.22;4.25;;;;;;;-145.68;67.34;73717.66;10450842;28;20218;-70
2023/09/05 22:12:15;;;;;;;7.80;4.13;;;;;;;-145.68;67.46;73725.66;10450996;28;20281;-70
2023/09/05 22:17:15;;;;;;;5.13;3.80;;;;;;;-145.68;66.80;73723.66;10450473;28;20241;-70
2023/09/05 22:22:15;;;;;;;7.53;3.97;;;;;;;-145.68;66.57;73717.66;10450730;28;20219;-70
2023/09/05 22:27:16;;;;;;;10.70;3.90;;;;;;;-145.68;65.75;73703.69;10450161;28;20604;-70
2023/09/05 22:32:16;;;;;;;4.85;4.30;;;;;;;-145.68;66.24;73707.69;10450041;28;20302;-70
2023/09/05 22:37:19;;;;;;;10.38;4.78;;;;;;;-145.68;65.81;73707.69;10450025;28;20196;-70
2023/09/05 22:42:19;;;;;;;4.32;3.92;;;;;;;-145.68;66.02;73727.66;10449542;28;20208;-70
2023/09/05 22:47:20;;;;;;;12.95;4.43;;;;;;;-145.68;66.27;73735.66;10449806;28;20234;-69